Startpagina
METAR-TAF:

METAR-TAF

Vliegvelden :

Luchthaven Ngurah Rai

Denpasar, Indonesië

breedte: 08-44-53S, lengte: 115-10-03E, hoogte: 4 m

Actueel weer

Dit bericht is 51 minuten geleden gemaakt, om 04:00 UTC
Wind 9 kt uit het oosten, variërend tussen het oostnoordoosten en het zuidoosten
Temperatuur 30°C
Vochtigheid 75%
Druk 1012 hPa
Zicht 10 km of meer
Weinig wolken op 1700 ft

METAR: WADD 130400Z 09009KT 070V130 9999 FEW017 30/25 Q1012 NOSIG

Tijdstip: 11:51 (04:51 UTC)

Verwachting

Dit bericht is 5 uur en het 51 minuten geleden gemaakt, om 23:00 UTC
Verwachting geldig van 13 om 00 UTC tot 14 om 00 UTC
Wind 10 kt uit het oostzuidoosten
Zicht 10 km of meer
Verspreide wolken op 1700 ft

TAF: WADD 122300Z 1300/1400 12010KT 9999 SCT017

Waarnemingen en weersverwachtingen van meer dan 4000 vliegvelden (METAR en TAF).

De beschikbare stations zijn de gele en rode punten op de kaart.

Ga met uw muis naar het station om de naam te zien.

Klik dan om waarnemingen en weersverwachtingen te zien.

kaart wijzigen: klik op de groene knoppen met een zwart kruis om in te zoomen, op de groene knop met een streepje om uit te zoomen of op de groene pijlen voor aangrenzende kaarten.


METAR-TAF: